Time;durP1;ratioP1;P1;durP2;ratioP2;P2;SDS_P1;SDS_P2;PMS_P1;PMS_P2;Temp;Humidity;BMP_temperature;BMP_pressure;BME280_temperature;BME280_humidity;BME280_pressure;Samples;Min_cycle;Max_cycle;Signal;HPM_P1;HPM_P2
2023/03/01 00:00:14;;;;;;;27.73;19.17;;;2.50;99.90;;;;;;5055195;28;20538;-63
2023/03/01 00:02:41;;;;;;;31.20;22.23;;;2.30;99.90;;;;;;5055077;28;20462;-61
2023/03/01 00:05:09;;;;;;;32.67;21.37;;;2.20;99.90;;;;;;5055157;28;20466;-64
2023/03/01 00:07:37;;;;;;;37.90;22.10;;;2.10;99.90;;;;;;5054644;28;20919;-63
2023/03/01 00:10:04;;;;;;;31.87;20.00;;;2.10;99.90;;;;;;5054644;28;20459;-64
2023/03/01 00:12:32;;;;;;;36.43;23.07;;;2.10;99.90;;;;;;5054622;28;21002;-63
2023/03/01 00:14:59;;;;;;;34.60;25.53;;;2.20;99.90;;;;;;5054722;28;20483;-64
2023/03/01 00:17:26;;;;;;;32.70;22.00;;;2.20;99.90;;;;;;5054631;28;20459;-63
2023/03/01 00:19:53;;;;;;;33.20;21.80;;;2.20;99.90;;;;;;5054634;28;20542;-65
2023/03/01 00:22:19;;;;;;;30.20;21.53;;;2.30;99.90;;;;;;5055237;28;20455;-64
2023/03/01 00:24:48;;;;;;;32.17;20.97;;;2.40;99.90;;;;;;5054924;28;20455;-64
2023/03/01 00:27:15;;;;;;;33.60;21.40;;;2.30;99.90;;;;;;5054752;28;20465;-62
2023/03/01 00:29:41;;;;;;;33.27;21.83;;;2.20;99.90;;;;;;5054691;28;20489;-64
2023/03/01 00:32:08;;;;;;;38.13;22.70;;;2.30;99.90;;;;;;5054857;28;20470;-63
2023/03/01 00:34:35;;;;;;;28.60;19.37;;;2.30;99.90;;;;;;5054545;28;20461;-64
2023/03/01 00:37:04;;;;;;;28.47;20.20;;;2.20;99.90;;;;;;5054558;28;20459;-65
2023/03/01 00:39:32;;;;;;;30.53;20.30;;;2.10;99.90;;;;;;5054964;28;20811;-64
2023/03/01 00:42:01;;;;;;;28.23;19.07;;;2.00;99.90;;;;;;5054780;28;20459;-64
2023/03/01 00:44:28;;;;;;;26.83;19.30;;;1.80;99.90;;;;;;5054551;28;20516;-64
2023/03/01 00:46:55;;;;;;;30.43;21.20;;;1.70;99.90;;;;;;5054012;28;20459;-65
2023/03/01 00:49:24;;;;;;;28.70;19.27;;;1.50;99.90;;;;;;5054268;28;20943;-63
2023/03/01 00:51:50;;;;;;;35.30;21.13;;;1.40;99.90;;;;;;5054581;28;20554;-64
2023/03/01 00:54:17;;;;;;;32.80;21.10;;;1.30;99.90;;;;;;5054661;28;20546;-62
2023/03/01 00:56:44;;;;;;;31.90;21.77;;;1.20;99.90;;;;;;5054194;28;20789;-62
2023/03/01 00:59:12;;;;;;;30.37;20.23;;;1.10;99.90;;;;;;5054238;28;20935;-64
2023/03/01 01:01:39;;;;;;;32.90;21.40;;;1.00;99.90;;;;;;5054198;28;20469;-63
2023/03/01 01:04:08;;;;;;;39.90;24.67;;;0.90;99.90;;;;;;5054415;28;20459;-64
2023/03/01 01:06:38;;;;;;;34.30;22.60;;;0.80;99.90;;;;;;5054216;28;20953;-64
2023/03/01 01:09:07;;;;;;;33.40;23.37;;;0.80;99.90;;;;;;5054110;28;20571;-64
2023/03/01 01:11:36;;;;;;;36.03;23.23;;;0.80;99.90;;;;;;5054392;28;20546;-64
2023/03/01 01:14:04;;;;;;;46.10;23.77;;;0.70;99.90;;;;;;5054450;28;20773;-63
2023/03/01 01:16:33;;;;;;;36.23;23.77;;;0.70;99.90;;;;;;5053983;28;20443;-64
2023/03/01 01:18:59;;;;;;;39.00;24.17;;;0.60;99.90;;;;;;5054216;28;20459;-64
2023/03/01 01:21:27;;;;;;;35.03;22.60;;;0.50;99.90;;;;;;5053736;28;20537;-63
2023/03/01 01:23:54;;;;;;;35.40;23.83;;;0.40;99.90;;;;;;5053890;28;20455;-64
2023/03/01 01:26:23;;;;;;;32.03;23.57;;;0.30;99.90;;;;;;5054373;28;20455;-64
2023/03/01 01:28:51;;;;;;;35.40;22.37;;;0.30;99.90;;;;;;5053994;28;20582;-64
2023/03/01 01:31:18;;;;;;;35.07;24.43;;;0.30;99.90;;;;;;5054048;28;20455;-63
2023/03/01 01:33:47;;;;;;;35.43;24.70;;;0.20;99.90;;;;;;5053590;28;20491;-63
2023/03/01 01:36:13;;;;;;;29.20;21.87;;;0.20;99.90;;;;;;5054002;28;20542;-64
2023/03/01 01:38:42;;;;;;;36.47;24.20;;;0.20;99.90;;;;;;5053930;28;20461;-64
2023/03/01 01:41:11;;;;;;;37.67;24.00;;;0.20;99.90;;;;;;5053785;28;20520;-64
2023/03/01 01:43:40;;;;;;;34.63;24.73;;;0.10;99.90;;;;;;5055390;28;20545;-64
2023/03/01 01:46:14;;;;;;;37.50;24.50;;;0.10;99.90;;;;;;5057180;28;20455;-65
2023/03/01 01:48:44;;;;;;;33.10;24.27;;;0.10;99.90;;;;;;5057137;28;20467;-65
2023/03/01 01:51:17;;;;;;;37.90;24.80;;;0.00;99.90;;;;;;5057504;28;20436;-64
2023/03/01 01:53:49;;;;;;;36.73;24.03;;;-0.10;99.90;;;;;;5057756;28;20784;-64
2023/03/01 01:56:18;;;;;;;33.57;22.07;;;-0.10;99.90;;;;;;5057117;28;20444;-64
2023/03/01 01:58:47;;;;;;;33.60;22.77;;;-0.10;99.90;;;;;;5057253;28;20462;-64
2023/03/01 02:01:14;;;;;;;31.40;21.57;;;-0.10;99.90;;;;;;5057369;28;20470;-64
2023/03/01 02:03:45;;;;;;;34.17;21.60;;;-0.10;99.90;;;;;;5057317;28;20461;-64
2023/03/01 02:06:20;;;;;;;27.30;19.90;;;-0.10;99.90;;;;;;5056769;28;20539;-63
2023/03/01 02:08:49;;;;;;;29.03;19.30;;;0.00;99.90;;;;;;5057042;28;20553;-65
2023/03/01 02:11:16;;;;;;;31.67;20.37;;;0.20;99.90;;;;;;5057047;28;20481;-64
2023/03/01 02:13:43;;;;;;;32.13;20.00;;;0.40;99.90;;;;;;5056980;28;20481;-63
2023/03/01 02:16:12;;;;;;;31.87;20.13;;;0.50;99.90;;;;;;5056525;28;20821;-65
2023/03/01 02:18:40;;;;;;;30.80;21.50;;;0.40;99.90;;;;;;5057348;28;20542;-64
2023/03/01 02:21:18;;;;;;;29.50;20.43;;;0.30;99.90;;;;;;5056988;28;20455;-62
2023/03/01 02:23:45;;;;;;;35.10;21.50;;;0.20;99.90;;;;;;5056899;28;20526;-64
2023/03/01 02:26:20;;;;;;;31.00;21.60;;;0.30;99.90;;;;;;5057383;28;20550;-64
2023/03/01 02:28:48;;;;;;;33.80;22.00;;;0.20;99.90;;;;;;5057193;28;20541;-64
2023/03/01 02:34:04;;;;;;;30.60;19.87;;;0.30;99.90;;;;;;5056803;28;20482;-63
2023/03/01 02:36:35;;;;;;;29.30;19.53;;;0.30;99.90;;;;;;5057141;28;20466;-64
2023/03/01 02:39:05;;;;;;;30.13;18.93;;;0.30;99.90;;;;;;5057000;28;20522;-64
2023/03/01 02:41:36;;;;;;;28.10;19.80;;;0.30;99.90;;;;;;5056410;28;20517;-64
2023/03/01 02:44:05;;;;;;;29.70;18.93;;;0.40;99.90;;;;;;5056982;28;20904;-64
2023/03/01 02:46:32;;;;;;;30.60;20.33;;;0.40;99.90;;;;;;5057045;28;20799;-65
2023/03/01 02:48:59;;;;;;;30.57;19.83;;;0.60;99.90;;;;;;5056622;28;20514;-65
2023/03/01 02:51:42;;;;;;;26.60;18.63;;;0.70;99.90;;;;;;5056803;28;20783;-65
2023/03/01 02:54:18;;;;;;;29.00;18.30;;;0.70;99.90;;;;;;5057208;28;20526;-65
2023/03/01 02:56:48;;;;;;;26.10;19.70;;;0.90;99.90;;;;;;5056587;28;20710;-65
2023/03/01 02:59:17;;;;;;;30.87;20.50;;;1.00;99.90;;;;;;5055930;28;20513;-64
2023/03/01 03:01:44;;;;;;;25.63;19.27;;;1.00;99.90;;;;;;5056036;28;20501;-64
2023/03/01 03:04:16;;;;;;;34.40;21.43;;;1.10;99.90;;;;;;5056431;28;20777;-65
2023/03/01 03:06:44;;;;;;;28.20;18.77;;;1.10;99.90;;;;;;5056575;28;20447;-64
2023/03/01 03:09:12;;;;;;;33.23;22.47;;;0.90;99.90;;;;;;5055605;28;20808;-64
2023/03/01 03:11:40;;;;;;;31.17;20.70;;;0.80;99.90;;;;;;5056122;28;20841;-64
2023/03/01 03:14:12;;;;;;;28.30;20.20;;;0.90;99.90;;;;;;5056751;28;20479;-64
2023/03/01 03:16:41;;;;;;;26.73;19.43;;;0.90;99.90;;;;;;5057065;28;20453;-64
2023/03/01 03:19:08;;;;;;;26.83;18.73;;;0.90;99.90;;;;;;5055269;28;20938;-65
2023/03/01 03:21:35;;;;;;;25.83;18.40;;;0.90;99.90;;;;;;5055418;28;20459;-65
2023/03/01 03:24:02;;;;;;;28.47;18.87;;;0.90;99.90;;;;;;5055383;28;20455;-65
2023/03/01 03:26:29;;;;;;;25.37;17.40;;;0.90;99.90;;;;;;5055483;28;20458;-64
2023/03/01 03:28:56;;;;;;;28.20;18.57;;;1.00;99.90;;;;;;5055582;28;20573;-64
2023/03/01 03:31:23;;;;;;;31.43;19.67;;;0.80;99.90;;;;;;5055525;28;20459;-63
2023/03/01 03:33:52;;;;;;;28.70;18.33;;;0.70;99.90;;;;;;5055382;28;20767;-64
2023/03/01 03:36:20;;;;;;;25.43;17.43;;;0.70;99.90;;;;;;5055312;28;20451;-64
2023/03/01 03:38:47;;;;;;;30.17;18.30;;;0.90;99.90;;;;;;5055194;28;20465;-63
2023/03/01 03:41:16;;;;;;;29.30;18.77;;;0.90;99.90;;;;;;5055275;28;20495;-64
2023/03/01 03:43:43;;;;;;;26.17;18.57;;;0.80;99.90;;;;;;5055598;28;20461;-64
2023/03/01 03:46:11;;;;;;;28.23;19.30;;;0.70;99.90;;;;;;5055485;28;20465;-64
2023/03/01 03:48:40;;;;;;;28.30;20.80;;;0.80;99.90;;;;;;5054877;28;20454;-64
2023/03/01 03:51:11;;;;;;;30.80;19.97;;;0.80;99.90;;;;;;5054827;28;20539;-64
2023/03/01 03:53:38;;;;;;;24.73;19.67;;;0.80;99.90;;;;;;5055446;28;20450;-63
2023/03/01 03:56:06;;;;;;;28.03;18.70;;;0.90;99.90;;;;;;5055462;28;20852;-64
2023/03/01 03:58:33;;;;;;;25.43;19.03;;;0.90;99.90;;;;;;5055116;28;20526;-64
2023/03/01 04:01:00;;;;;;;30.43;19.10;;;0.90;99.90;;;;;;5054827;28;20530;-65
2023/03/01 04:03:28;;;;;;;28.83;18.90;;;1.00;99.90;;;;;;5054625;28;20458;-63
2023/03/01 04:05:58;;;;;;;28.43;19.83;;;1.00;99.90;;;;;;5037031;28;20943;-65
2023/03/01 04:08:26;;;;;;;34.33;21.13;;;0.90;99.90;;;;;;5034562;28;20455;-64
2023/03/01 04:10:59;;;;;;;26.30;20.23;;;0.80;99.90;;;;;;5034436;28;20987;-63
2023/03/01 04:13:26;;;;;;;26.63;18.70;;;0.90;99.90;;;;;;5034804;28;20783;-65
2023/03/01 04:15:54;;;;;;;26.87;19.00;;;1.00;99.90;;;;;;5034320;28;20483;-64
2023/03/01 04:18:22;;;;;;;25.30;17.40;;;1.00;99.90;;;;;;5034697;28;20528;-64
2023/03/01 04:20:51;;;;;;;28.17;19.07;;;0.90;99.90;;;;;;5034355;28;20551;-61
2023/03/01 04:23:20;;;;;;;30.17;18.20;;;0.70;99.90;;;;;;5034303;28;20452;-63
2023/03/01 04:25:53;;;;;;;24.40;17.90;;;0.50;99.90;;;;;;5034933;28;20460;-64
2023/03/01 04:28:21;;;;;;;26.40;18.77;;;0.60;99.90;;;;;;5034766;28;20440;-64
2023/03/01 04:30:48;;;;;;;25.80;17.77;;;0.60;99.90;;;;;;5034023;28;20978;-64
2023/03/01 04:33:14;;;;;;;24.00;17.20;;;0.50;99.90;;;;;;5034469;28;20468;-64
2023/03/01 04:35:41;;;;;;;25.50;17.83;;;0.70;99.90;;;;;;5034081;28;20503;-64
2023/03/01 04:38:09;;;;;;;26.40;17.97;;;0.80;99.90;;;;;;5034192;28;20971;-65
2023/03/01 04:40:36;;;;;;;26.03;18.83;;;0.80;99.90;;;;;;5033900;28;20917;-65
2023/03/01 04:43:04;;;;;;;28.23;19.10;;;0.90;99.90;;;;;;5034029;28;20465;-64
2023/03/01 04:45:34;;;;;;;23.57;16.30;;;0.80;99.90;;;;;;5053342;28;20542;-64
2023/03/01 04:48:01;;;;;;;23.20;16.00;;;0.80;99.90;;;;;;5053647;28;20463;-66
2023/03/01 04:50:28;;;;;;;26.00;18.40;;;0.80;99.90;;;;;;5053834;28;20570;-63
2023/03/01 04:52:58;;;;;;;24.47;17.43;;;0.70;99.90;;;;;;5054338;28;20494;-65
2023/03/01 04:55:25;;;;;;;24.37;16.63;;;0.80;99.90;;;;;;5054235;28;20554;-64
2023/03/01 04:57:53;;;;;;;24.43;16.83;;;0.80;99.90;;;;;;5054184;28;20454;-65
2023/03/01 05:00:23;;;;;;;26.63;17.53;;;0.80;99.90;;;;;;5054241;28;20907;-64
2023/03/01 05:02:54;;;;;;;23.10;15.57;;;0.70;99.90;;;;;;5053887;28;20923;-64
2023/03/01 05:05:25;;;;;;;29.30;18.13;;;0.70;99.90;;;;;;5054145;28;20443;-66
2023/03/01 05:07:54;;;;;;;27.77;18.63;;;0.60;99.90;;;;;;5053470;28;20470;-65
2023/03/01 05:10:21;;;;;;;27.93;19.33;;;0.30;99.90;;;;;;5053939;28;20989;-64
2023/03/01 05:12:48;;;;;;;25.90;18.10;;;0.10;99.90;;;;;;5054392;28;20464;-64
2023/03/01 05:15:15;;;;;;;27.33;18.90;;;0.00;99.90;;;;;;5054013;28;20997;-63
2023/03/01 05:17:43;;;;;;;23.63;16.83;;;-0.10;99.90;;;;;;5054775;28;20474;-64
2023/03/01 05:20:11;;;;;;;28.30;19.07;;;-0.20;99.90;;;;;;5057852;28;20458;-64
2023/03/01 05:22:38;;;;;;;30.33;18.83;;;-0.30;99.90;;;;;;5057469;28;20485;-64
2023/03/01 05:25:06;;;;;;;30.70;18.83;;;-0.30;99.90;;;;;;5057809;28;20455;-63
2023/03/01 05:27:34;;;;;;;26.40;18.50;;;-0.30;99.90;;;;;;5057697;28;20454;-64
2023/03/01 05:30:13;;;;;;;28.53;19.37;;;-0.20;99.90;;;;;;5057820;28;20489;-64
2023/03/01 05:32:41;;;;;;;29.47;19.00;;;-0.20;99.90;;;;;;5057755;28;20466;-64
2023/03/01 05:35:10;;;;;;;26.10;18.63;;;-0.10;99.90;;;;;;5057688;28;20459;-63
2023/03/01 05:37:37;;;;;;;26.43;18.90;;;-0.20;99.90;;;;;;5057376;28;20455;-63
2023/03/01 05:40:05;;;;;;;29.90;19.77;;;-0.20;99.90;;;;;;5057446;28;20538;-63
2023/03/01 05:42:32;;;;;;;30.40;17.90;;;-0.30;99.90;;;;;;5057624;28;20455;-64
2023/03/01 05:44:58;;;;;;;25.83;17.90;;;-0.40;99.90;;;;;;5057325;28;20990;-64
2023/03/01 05:47:25;;;;;;;25.43;19.03;;;-0.50;99.90;;;;;;5057580;28;20459;-64
2023/03/01 05:49:52;;;;;;;28.07;19.27;;;-0.30;99.90;;;;;;5057798;28;20947;-64
2023/03/01 05:52:20;;;;;;;29.47;18.90;;;-0.10;99.90;;;;;;5057820;28;20566;-64
2023/03/01 05:54:47;;;;;;;26.40;17.90;;;-0.10;99.90;;;;;;5057625;28;20485;-64
2023/03/01 05:57:14;;;;;;;33.07;22.37;;;0.00;99.90;;;;;;5057207;28;20903;-64
2023/03/01 05:59:41;;;;;;;29.83;19.43;;;0.20;99.90;;;;;;5057464;28;20749;-64
2023/03/01 06:02:08;;;;;;;32.30;22.47;;;0.30;99.90;;;;;;5057172;28;20554;-64
2023/03/01 06:04:35;;;;;;;68.33;40.80;;;0.40;99.90;;;;;;5057294;28;20481;-64
2023/03/01 06:07:02;;;;;;;43.07;26.90;;;0.40;99.90;;;;;;5057039;28;20485;-64
2023/03/01 06:09:30;;;;;;;30.80;19.97;;;0.30;99.90;;;;;;5056839;28;20481;-65
2023/03/01 06:11:57;;;;;;;30.80;20.47;;;0.30;99.90;;;;;;5056977;28;20459;-63
2023/03/01 06:14:24;;;;;;;29.33;20.47;;;0.30;99.90;;;;;;5056752;28;20483;-63
2023/03/01 06:16:51;;;;;;;33.73;20.10;;;0.10;99.90;;;;;;5057147;28;20439;-64
2023/03/01 06:19:17;;;;;;;33.17;19.40;;;0.20;99.90;;;;;;5056554;28;20459;-64
2023/03/01 06:21:44;;;;;;;29.20;21.33;;;0.20;99.90;;;;;;5056824;28;20546;-64
2023/03/01 06:24:11;;;;;;;29.90;21.20;;;0.30;99.90;;;;;;5056476;28;20940;-62
2023/03/01 06:26:39;;;;;;;24.20;18.87;;;0.40;99.90;;;;;;5056825;28;20456;-64
2023/03/01 06:29:07;;;;;;;27.80;18.73;;;0.50;99.90;;;;;;5056240;28;20463;-64
2023/03/01 06:31:34;;;;;;;36.60;20.00;;;0.50;99.90;;;;;;5057399;28;20491;-65
2023/03/01 06:34:01;;;;;;;27.37;19.10;;;0.60;99.90;;;;;;5056960;28;20455;-64
2023/03/01 06:36:27;;;;;;;24.67;17.83;;;0.60;99.90;;;;;;5056764;28;20455;-65
2023/03/01 06:38:54;;;;;;;28.53;19.50;;;0.60;99.90;;;;;;5056175;28;20804;-65
2023/03/01 06:41:21;;;;;;;25.13;18.43;;;0.70;99.90;;;;;;5056208;28;20550;-63
2023/03/01 06:43:49;;;;;;;28.30;19.67;;;0.80;99.90;;;;;;5056343;28;20546;-64
2023/03/01 06:46:16;;;;;;;51.00;30.63;;;0.70;99.90;;;;;;5056766;28;20473;-65
2023/03/01 06:48:43;;;;;;;83.60;51.67;;;0.60;99.90;;;;;;5056594;28;20801;-64
2023/03/01 06:51:10;;;;;;;42.80;28.23;;;0.40;99.90;;;;;;5056683;28;20479;-64
2023/03/01 06:53:37;;;;;;;46.30;29.40;;;0.40;99.90;;;;;;5056232;28;20467;-63
2023/03/01 06:56:04;;;;;;;35.63;21.87;;;0.40;99.90;;;;;;5056192;28;20533;-63
2023/03/01 06:58:31;;;;;;;33.80;19.00;;;0.40;99.90;;;;;;5056035;28;20452;-64
2023/03/01 07:00:59;;;;;;;43.93;21.13;;;0.40;99.90;;;;;;5056346;28;20455;-64
2023/03/01 07:03:26;;;;;;;31.07;19.70;;;0.40;99.90;;;;;;5056776;28;20928;-65
2023/03/01 07:05:53;;;;;;;31.73;20.37;;;0.50;99.90;;;;;;5056444;28;20546;-64
2023/03/01 07:08:20;;;;;;;33.63;20.73;;;0.40;99.90;;;;;;5055965;28;20465;-64
2023/03/01 07:10:47;;;;;;;53.80;36.03;;;0.40;99.90;;;;;;5055576;28;20511;-64
2023/03/01 07:13:14;;;;;;;35.03;22.60;;;0.40;99.90;;;;;;5055940;28;20459;-63
2023/03/01 07:15:41;;;;;;;30.70;20.97;;;0.40;99.90;;;;;;5055406;28;20483;-64
2023/03/01 07:18:09;;;;;;;25.53;17.77;;;0.40;99.90;;;;;;5055343;28;20461;-64
2023/03/01 07:20:36;;;;;;;27.90;20.20;;;0.40;99.90;;;;;;5055646;28;20840;-64
2023/03/01 07:23:03;;;;;;;30.90;19.20;;;0.50;99.90;;;;;;5055677;28;20469;-65
2023/03/01 07:25:30;;;;;;;28.63;20.13;;;0.60;99.90;;;;;;5055516;28;20785;-64
2023/03/01 07:27:57;;;;;;;30.60;18.90;;;0.70;99.90;;;;;;5055522;28;20462;-64
2023/03/01 07:30:25;;;;;;;27.80;19.20;;;0.90;99.90;;;;;;5055205;28;20479;-64
2023/03/01 07:32:52;;;;;;;27.23;19.33;;;0.90;99.90;;;;;;5055162;28;20466;-65
2023/03/01 07:35:20;;;;;;;36.87;22.27;;;1.10;99.90;;;;;;5055450;28;20465;-64
2023/03/01 07:37:47;;;;;;;45.23;30.77;;;1.30;99.90;;;;;;5055273;28;20491;-61
2023/03/01 07:40:14;;;;;;;33.03;21.30;;;1.40;99.90;;;;;;5054755;28;20547;-65
2023/03/01 07:42:41;;;;;;;29.03;20.17;;;1.40;99.90;;;;;;5055471;28;20462;-65
2023/03/01 07:45:09;;;;;;;24.50;18.73;;;1.30;99.90;;;;;;5055086;28;20845;-65
2023/03/01 07:47:36;;;;;;;29.27;16.40;;;1.50;99.90;;;;;;5055097;28;20916;-64
2023/03/01 07:50:03;;;;;;;29.67;18.80;;;1.30;99.90;;;;;;5054853;28;21023;-65
2023/03/01 07:52:32;;;;;;;24.60;17.40;;;1.30;99.90;;;;;;5055408;28;20465;-64
2023/03/01 07:54:59;;;;;;;28.80;15.43;;;1.30;99.90;;;;;;5055465;28;20459;-63
2023/03/01 07:57:26;;;;;;;21.50;16.07;;;1.40;99.90;;;;;;5054809;28;20459;-64
2023/03/01 07:59:53;;;;;;;17.93;13.70;;;1.50;99.90;;;;;;5054728;28;20462;-64
2023/03/01 08:02:19;;;;;;;20.57;14.13;;;1.60;99.90;;;;;;5055083;28;20462;-64
2023/03/01 08:04:46;;;;;;;16.07;12.13;;;1.70;99.90;;;;;;5055186;28;20485;-63
2023/03/01 08:07:13;;;;;;;22.00;12.70;;;1.70;99.90;;;;;;5054888;28;20487;-63
2023/03/01 08:09:41;;;;;;;21.20;12.60;;;1.70;99.90;;;;;;5054599;28;20538;-65
2023/03/01 08:12:08;;;;;;;17.77;13.23;;;1.80;99.90;;;;;;5054694;28;20805;-64
2023/03/01 08:14:35;;;;;;;29.90;21.83;;;2.00;99.90;;;;;;5054437;28;20586;-63
2023/03/01 08:17:03;;;;;;;24.73;16.30;;;2.00;99.90;;;;;;5054793;28;20467;-64
2023/03/01 08:19:31;;;;;;;22.07;14.70;;;2.10;99.90;;;;;;5054389;28;20466;-63
2023/03/01 08:21:59;;;;;;;18.50;11.27;;;2.10;99.90;;;;;;5054752;28;20880;-64
2023/03/01 08:24:26;;;;;;;16.80;11.40;;;2.20;99.90;;;;;;5047069;28;20459;-64
2023/03/01 08:26:55;;;;;;;16.70;12.47;;;2.30;99.90;;;;;;5054382;28;20461;-64
2023/03/01 08:29:24;;;;;;;19.33;10.97;;;2.40;99.90;;;;;;5054190;28;20451;-64
2023/03/01 08:31:51;;;;;;;13.77;10.53;;;2.50;99.90;;;;;;5054422;28;20479;-65
2023/03/01 08:34:19;;;;;;;14.17;11.60;;;2.50;99.90;;;;;;5054480;28;20549;-65
2023/03/01 08:36:47;;;;;;;14.90;11.47;;;2.50;99.90;;;;;;5054189;28;20454;-64
2023/03/01 08:39:15;;;;;;;50.07;31.10;;;2.60;99.90;;;;;;5054798;28;20451;-64
2023/03/01 08:41:43;;;;;;;18.87;9.00;;;2.60;99.90;;;;;;5054078;28;20447;-65
2023/03/01 08:44:13;;;;;;;15.40;8.83;;;2.60;99.90;;;;;;5054628;28;20446;-65
2023/03/01 08:46:42;;;;;;;15.23;8.93;;;2.60;99.90;;;;;;5036609;28;20452;-65
2023/03/01 08:49:11;;;;;;;12.97;8.63;;;2.80;99.90;;;;;;5034128;28;20527;-65
2023/03/01 08:51:39;;;;;;;11.30;7.90;;;2.80;99.90;;;;;;5034878;28;20810;-65
2023/03/01 08:54:06;;;;;;;11.00;7.93;;;2.70;99.90;;;;;;5038513;28;20460;-64
2023/03/01 08:56:34;;;;;;;11.23;7.43;;;2.70;99.90;;;;;;5038446;28;20456;-64
2023/03/01 08:59:01;;;;;;;12.60;8.17;;;2.80;99.90;;;;;;5038746;28;20788;-64
2023/03/01 09:01:29;;;;;;;12.30;8.90;;;2.80;99.90;;;;;;5038332;28;20448;-64
2023/03/01 09:03:56;;;;;;;17.30;8.37;;;2.80;99.90;;;;;;5038251;28;20470;-64
2023/03/01 09:06:23;;;;;;;10.70;8.23;;;2.90;99.90;;;;;;5038179;28;20939;-64
2023/03/01 09:08:50;;;;;;;8.03;6.60;;;3.10;99.90;;;;;;5037984;28;20925;-64
2023/03/01 09:11:19;;;;;;;8.93;7.63;;;3.30;99.90;;;;;;5038158;28;20511;-65
2023/03/01 09:13:46;;;;;;;9.97;7.67;;;3.30;99.90;;;;;;5038212;28;20486;-66
2023/03/01 09:16:15;;;;;;;10.43;8.13;;;3.30;99.90;;;;;;5038137;28;20502;-64
2023/03/01 09:18:43;;;;;;;12.33;9.17;;;3.40;99.90;;;;;;5038537;28;20452;-65
2023/03/01 09:21:12;;;;;;;11.83;8.87;;;3.50;99.90;;;;;;5037948;28;20482;-64
2023/03/01 09:23:41;;;;;;;11.43;8.30;;;3.50;99.90;;;;;;5039163;28;20455;-63
2023/03/01 09:26:09;;;;;;;10.37;7.33;;;3.60;99.90;;;;;;5038163;28;20558;-64
2023/03/01 09:28:37;;;;;;;13.60;8.03;;;3.50;99.90;;;;;;5037814;28;20455;-64
2023/03/01 09:31:04;;;;;;;9.20;6.97;;;3.50;99.90;;;;;;5037996;28;20812;-65
2023/03/01 09:33:34;;;;;;;11.03;7.60;;;3.60;99.90;;;;;;5038223;28;20493;-64
2023/03/01 09:36:04;;;;;;;11.53;7.73;;;3.60;99.90;;;;;;5038243;28;20470;-64
2023/03/01 09:38:31;;;;;;;14.00;8.20;;;3.70;99.90;;;;;;5037857;28;20630;-64
2023/03/01 09:40:58;;;;;;;14.40;8.40;;;3.80;99.90;;;;;;5037898;28;20775;-65
2023/03/01 09:43:32;;;;;;;10.50;8.23;;;3.90;99.90;;;;;;5037477;28;20456;-64
2023/03/01 09:46:03;;;;;;;10.20;5.73;;;3.90;99.90;;;;;;5037901;28;20454;-65
2023/03/01 09:48:38;;;;;;;4.43;3.90;;;3.90;99.90;;;;;;5039396;28;20964;-65
2023/03/01 09:51:09;;;;;;;11.60;5.30;;;3.90;99.90;;;;;;5037792;28;20474;-64
2023/03/01 09:53:36;;;;;;;7.93;6.10;;;4.00;99.90;;;;;;5037215;28;20444;-65
2023/03/01 09:56:06;;;;;;;8.00;4.97;;;4.10;99.90;;;;;;5037566;28;20466;-63
2023/03/01 09:58:44;;;;;;;6.33;4.87;;;4.10;99.90;;;;;;5037404;28;20491;-65
2023/03/01 10:01:24;;;;;;;8.93;5.97;;;4.10;99.90;;;;;;5037238;28;20459;-64
2023/03/01 10:04:06;;;;;;;6.37;5.03;;;4.10;99.90;;;;;;5038161;28;20444;-65
2023/03/01 10:06:34;;;;;;;7.30;4.87;;;4.30;99.90;;;;;;5057275;28;20520;-64
2023/03/01 10:09:06;;;;;;;7.50;5.03;;;4.30;99.90;;;;;;5057085;28;20780;-64
2023/03/01 10:11:37;;;;;;;8.03;3.97;;;4.40;99.90;;;;;;5056816;28;20632;-65
2023/03/01 10:14:07;;;;;;;5.03;3.93;;;4.60;99.90;;;;;;5056860;28;20530;-65
2023/03/01 10:16:42;;;;;;;7.20;4.33;;;4.60;99.90;;;;;;5057088;28;20530;-65
2023/03/01 10:19:15;;;;;;;7.23;4.60;;;4.70;99.90;;;;;;5057042;28;20781;-65
2023/03/01 10:21:46;;;;;;;5.83;3.50;;;4.80;99.90;;;;;;5056801;28;20439;-69
2023/03/01 10:24:15;;;;;;;6.70;4.27;;;4.90;99.90;;;;;;5056801;28;20768;-69
2023/03/01 10:26:51;;;;;;;6.40;4.30;;;4.90;99.90;;;;;;5056262;28;20459;-69
2023/03/01 10:29:25;;;;;;;5.57;3.60;;;5.00;99.90;;;;;;5056346;28;20478;-67
2023/03/01 10:31:54;;;;;;;4.73;3.30;;;5.10;99.90;;;;;;5056613;28;20477;-66
2023/03/01 10:34:22;;;;;;;3.87;3.43;;;5.10;99.90;;;;;;5056457;28;20465;-68
2023/03/01 10:36:53;;;;;;;6.53;3.47;;;5.00;99.90;;;;;;5056351;28;20931;-66
2023/03/01 10:39:23;;;;;;;6.07;3.70;;;5.10;99.90;;;;;;5056601;28;20802;-67
2023/03/01 10:41:58;;;;;;;4.83;3.40;;;5.00;99.90;;;;;;5057096;28;20458;-66
2023/03/01 10:44:43;;;;;;;5.43;3.60;;;5.00;99.90;;;;;;5055970;28;20439;-67
2023/03/01 10:47:16;;;;;;;12.77;6.10;;;5.10;99.90;;;;;;5055674;28;20876;-66
2023/03/01 10:50:03;;;;;;;9.47;3.80;;;5.20;99.90;;;;;;5056281;28;20453;-68
2023/03/01 10:52:36;;;;;;;5.00;3.47;;;5.20;99.90;;;;;;5055991;28;20558;-68
2023/03/01 10:55:19;;;;;;;3.73;3.00;;;5.20;99.90;;;;;;5055937;28;20451;-67
2023/03/01 10:57:46;;;;;;;5.90;3.20;;;5.20;97.80;;;;;;5056051;28;20496;-67
2023/03/01 11:00:23;;;;;;;3.43;3.03;;;5.20;95.80;;;;;;5056197;28;20788;-68
2023/03/01 11:02:52;;;;;;;4.00;3.43;;;5.20;95.40;;;;;;5055814;28;20776;-68
2023/03/01 11:05:24;;;;;;;4.30;3.00;;;5.30;97.50;;;;;;5056063;28;20923;-68
2023/03/01 11:07:54;;;;;;;3.70;3.30;;;5.40;96.90;;;;;;5055954;28;20455;-67
2023/03/01 11:10:25;;;;;;;5.87;4.00;;;5.40;96.20;;;;;;5056555;28;20493;-68
2023/03/01 11:12:53;;;;;;;6.60;3.40;;;5.50;94.50;;;;;;5055960;28;20562;-68
2023/03/01 11:15:26;;;;;;;4.60;3.10;;;5.50;94.00;;;;;;5055560;28;20574;-68
2023/03/01 11:17:55;;;;;;;4.97;3.00;;;5.60;94.00;;;;;;5056068;28;20526;-68
2023/03/01 11:20:28;;;;;;;7.63;4.00;;;5.70;89.70;;;;;;5055972;28;20451;-68
2023/03/01 11:22:59;;;;;;;5.37;3.53;;;5.60;87.70;;;;;;5056096;28;20459;-67
2023/03/01 11:25:28;;;;;;;5.90;3.50;;;5.60;89.70;;;;;;5055985;28;20483;-67
2023/03/01 11:27:57;;;;;;;7.57;3.70;;;5.70;90.90;;;;;;5055479;28;20541;-68
2023/03/01 11:30:28;;;;;;;4.73;3.60;;;5.70;90.50;;;;;;5055697;28;20485;-67
2023/03/01 11:33:05;;;;;;;3.17;2.90;;;5.80;83.70;;;;;;5055625;28;20562;-67
2023/03/01 11:35:35;;;;;;;5.83;3.40;;;5.90;74.20;;;;;;5056131;28;20519;-67
2023/03/01 11:38:17;;;;;;;7.67;3.73;;;6.10;74.60;;;;;;5056370;28;20783;-67
2023/03/01 11:40:50;;;;;;;4.30;3.70;;;6.10;75.10;;;;;;5055999;28;20530;-67
2023/03/01 11:43:24;;;;;;;6.90;3.77;;;6.20;77.50;;;;;;5056240;28;20439;-68
2023/03/01 11:46:26;;;;;;;3.93;3.40;;;6.30;76.80;;;;;;5056770;28;20440;-67
2023/03/01 11:49:02;;;;;;;4.50;3.03;;;6.30;74.80;;;;;;5056216;28;20463;-69
2023/03/01 11:51:45;;;;;;;6.13;3.80;;;6.40;72.20;;;;;;5055922;28;20534;-68
2023/03/01 11:54:29;;;;;;;4.47;3.50;;;6.50;71.80;;;;;;5056507;28;20537;-69
2023/03/01 11:57:01;;;;;;;4.10;3.60;;;6.70;72.70;;;;;;5055451;28;20530;-68
2023/03/01 11:59:52;;;;;;;7.00;2.60;;;6.90;67.00;;;;;;5055287;28;20490;-68
2023/03/01 12:02:58;;;;;;;4.00;2.77;;;7.00;60.00;;;;;;5055303;28;20527;-68
2023/03/01 12:05:48;;;;;;;3.33;2.50;;;7.20;58.10;;;;;;5031761;28;20894;-67
2023/03/01 12:08:20;;;;;;;5.40;3.40;;;7.80;57.60;;;;;;5054693;28;20455;-67
2023/03/01 12:10:59;;;;;;;13.33;3.70;;;9.40;52.80;;;;;;5054405;28;20538;-68
2023/03/01 12:13:48;;;;;;;4.33;2.93;;;11.10;46.50;;;;;;5054553;28;20468;-68
2023/03/01 12:16:31;;;;;;;4.50;2.87;;;12.60;41.40;;;;;;5054552;28;20435;-67
2023/03/01 12:19:22;;;;;;;2.90;2.40;;;14.00;31.80;;;;;;5054560;28;20431;-69
2023/03/01 12:22:11;;;;;;;5.23;3.10;;;15.10;30.50;;;;;;5054292;28;20518;-68
2023/03/01 12:25:12;;;;;;;4.27;2.60;;;16.40;27.30;;;;;;5054652;28;20435;-67
2023/03/01 12:27:59;;;;;;;3.30;2.60;;;17.30;20.50;;;;;;5051205;28;20462;-68
2023/03/01 12:30:35;;;;;;;3.13;2.83;;;18.00;18.20;;;;;;5054463;28;20447;-67
2023/03/01 12:33:14;;;;;;;3.23;2.93;;;18.70;17.10;;;;;;5054554;28;20493;-67
2023/03/01 12:35:55;;;;;;;4.63;3.70;;;19.50;16.60;;;;;;5054322;28;20781;-67
2023/03/01 12:38:34;;;;;;;4.30;2.37;;;19.90;14.40;;;;;;5054436;28;20764;-66
2023/03/01 12:41:58;;;;;;;5.80;2.60;;;19.40;11.40;;;;;;5054406;28;20509;-67
2023/03/01 12:44:39;;;;;;;2.90;2.30;;;19.30;11.40;;;;;;4972466;28;20458;-68
2023/03/01 12:47:31;;;;;;;3.50;2.57;;;19.70;11.50;;;;;;4973784;28;20465;-68
2023/03/01 12:50:02;;;;;;;2.87;2.60;;;20.20;10.90;;;;;;5030483;28;20461;-67
2023/03/01 12:52:39;;;;;;;4.23;2.60;;;20.30;11.00;;;;;;5054161;28;20463;-67
2023/03/01 12:55:20;;;;;;;5.60;2.60;;;20.20;10.30;;;;;;5054127;28;20837;-67
2023/03/01 12:57:54;;;;;;;4.10;2.70;;;20.40;11.60;;;;;;5054373;28;20446;-67